Date,TemperatureHighF,TemperatureAvgF,TemperatureLowF,DewpointHighF,DewpointAvgF,DewpointLowF,HumidityHigh,HumidityAvg,HumidityLow,PressureMaxIn,PressureMinIn,WindSpeedMaxMPH,WindSpeedAvgMPH,GustSpeedMaxMPH,PrecipitationSumIn
2012-12-3,59.2,56.8,50.3,58.8,55.5,50.0,99,96,89,29.98,29.79,2,1,0,0.27
2012-12-5,26.4,26.4,26.4,23.3,23.3,23.3,88,88,88,30.26,30.26,0,0,0,0.00
2012-12-6,37.9,31.0,24.4,29.9,26.1,21.9,94,82,67,30.25,29.92,2,0,7,0.01
2012-12-7,42.4,41.2,37.4,41.6,40.4,36.4,98,97,96,29.87,29.76,2,0,2,0.07
2012-12-8,41.3,37.3,32.9,40.7,36.1,30.4,98,95,90,30.06,29.71,4,0,4,0.24
2012-12-9,37.1,34.4,32.4,36.1,32.5,29.0,98,93,85,30.07,29.55,7,0,7,0.14
2012-12-10,39.2,36.0,31.2,38.7,33.4,25.6,99,90,80,29.76,29.50,5,0,5,0.14
2012-12-11,35.5,28.6,23.0,28.9,23.7,21.3,95,82,64,30.06,29.75,9,0,9,0.00
2012-12-12,44.3,30.8,22.4,29.9,24.9,20.8,95,80,52,30.27,30.05,5,0,5,0.00
2012-12-13,44.9,34.7,23.5,30.2,26.8,21.8,95,74,49,30.27,30.07,9,1,9,0.00
2012-12-14,49.2,35.0,25.2,35.2,29.1,23.5,96,80,53,30.14,30.06,4,0,4,0.00
2012-12-15,42.7,37.2,29.2,40.9,33.8,27.4,98,88,70,30.07,29.58,7,0,7,0.08
2012-12-16,49.6,46.3,41.0,48.8,45.0,39.1,99,95,88,29.59,29.46,5,0,5,0.01
2012-12-17,41.7,39.7,37.7,39.1,36.4,33.0,94,88,79,29.62,29.50,2,0,2,0.01
2012-12-18,44.4,36.6,31.6,34.1,32.0,28.3,95,84,58,29.67,29.52,6,0,6,0.02
2012-12-19,39.2,35.9,29.9,35.5,33.7,28.6,96,92,80,30.02,29.62,3,0,3,0.02
2012-12-20,45.4,38.8,32.8,44.9,37.3,31.3,98,94,85,29.92,29.04,12,1,12,0.87
2012-12-21,32.7,31.1,29.1,31.8,28.4,23.6,97,90,77,29.78,29.06,12,1,12,0.87
2012-12-22,35.2,29.9,25.3,25.9,24.5,22.5,91,80,66,29.94,29.78,10,0,10,0.06
2012-12-23,36.7,26.4,17.1,27.6,21.7,15.7,97,83,67,29.94,29.80,6,0,6,0.02
2012-12-24,33.2,27.0,20.9,28.3,24.0,18.5,94,88,80,29.92,29.71,4,0,4,0.01
2012-12-25,33.8,28.0,21.1,28.6,23.7,19.3,94,84,74,30.21,29.89,5,0,5,0.03
2012-12-26,29.2,27.8,25.1,26.7,24.9,23.2,96,89,79,30.17,29.74,6,0,6,0.03
2012-12-27,33.7,26.2,15.1,29.7,23.4,11.4,96,89,77,30.06,29.77,5,0,5,0.07
2012-12-28,29.7,21.2,11.8,26.6,18.7,9.2,96,90,85,30.09,29.84,2,0,2,0.01
2012-12-29,30.5,26.8,21.8,27.6,24.5,18.8,95,91,86,29.96,29.71,5,0,5,0.01
2012-12-30,27.7,22.9,14.9,25.7,20.5,12.2,97,90,84,30.21,29.96,6,0,6,0.00
2012-12-31,33.1,24.4,14.3,30.3,21.9,11.9,94,90,85,30.11,29.84,7,1,7,0.01
2013-1-1,27.7,21.9,13.1,22.1,16.5,8.9,92,80,64,30.06,29.92,5,0,5,0.01